Time;durP1;ratioP1;P1;durP2;ratioP2;P2;SDS_P1;SDS_P2;PMS_P1;PMS_P2;Temp;Humidity;BMP_temperature;BMP_pressure;BME280_temperature;BME280_humidity;BME280_pressure;Samples;Min_cycle;Max_cycle;Signal;HPM_P1;HPM_P2
2023/05/17 00:01:16;;;;;;;3.28;0.80;;;9.20;73.00;;;;;;5066709;28;20527;-68
2023/05/17 00:03:44;;;;;;;3.13;1.02;;;9.20;73.00;;;;;;5067146;28;20036;-68
2023/05/17 00:06:11;;;;;;;3.50;0.65;;;9.20;72.90;;;;;;5064864;28;20055;-61
2023/05/17 00:08:38;;;;;;;1.65;0.75;;;9.20;73.20;;;;;;5066655;28;20048;-62
2023/05/17 00:11:15;;;;;;;3.55;1.00;;;9.10;73.30;;;;;;5065275;28;20048;-76
2023/05/17 00:13:44;;;;;;;3.00;0.60;;;9.10;73.30;;;;;;5061743;28;20100;-76
2023/05/17 00:16:11;;;;;;;2.47;0.70;;;9.10;73.30;;;;;;5066232;28;20043;-76
2023/05/17 00:18:43;;;;;;;2.33;0.85;;;9.00;73.50;;;;;;5066642;28;20048;-76
2023/05/17 00:21:22;;;;;;;;;;;;;;;;;;;;;
2023/05/17 00:23:49;;;;;;;3.53;0.95;;;8.90;73.70;;;;;;5063041;28;20049;-68
2023/05/17 00:26:16;;;;;;;2.78;0.90;;;8.90;73.80;;;;;;5062141;28;20106;-69
2023/05/17 00:28:43;;;;;;;3.78;0.95;;;8.90;73.60;;;;;;5065192;28;20519;-69
2023/05/17 00:31:10;;;;;;;1.73;0.60;;;8.90;73.80;;;;;;5047278;28;20041;-69
2023/05/17 00:33:37;;;;;;;2.92;0.85;;;8.90;74.10;;;;;;5067047;28;20124;-71
2023/05/17 00:36:05;;;;;;;4.63;0.90;;;8.80;74.10;;;;;;5049207;28;20052;-70
2023/05/17 00:38:48;;;;;;;2.15;0.50;;;8.70;74.20;;;;;;5066644;28;20044;-70
2023/05/17 00:41:16;;;;;;;3.22;0.75;;;8.70;74.50;;;;;;5066599;28;20051;-66
2023/05/17 00:43:43;;;;;;;3.67;1.17;;;8.70;74.40;;;;;;5065780;28;20044;-66
2023/05/17 00:46:26;;;;;;;3.38;1.10;;;8.60;74.50;;;;;;5050625;28;20049;-68
2023/05/17 00:51:45;;;;;;;3.22;0.88;;;8.70;74.40;;;;;;5066318;28;20056;-70
2023/05/17 00:54:15;;;;;;;1.80;0.80;;;8.70;74.30;;;;;;5051032;28;20048;-70
2023/05/17 00:56:43;;;;;;;2.72;0.70;;;8.60;74.60;;;;;;5040040;28;20534;-71
2023/05/17 00:59:12;;;;;;;3.42;0.90;;;8.60;74.60;;;;;;5065602;28;20040;-70
2023/05/17 01:01:44;;;;;;;2.72;0.88;;;8.60;74.70;;;;;;5041177;28;20701;-75
2023/05/17 01:04:15;;;;;;;3.67;1.00;;;8.50;74.80;;;;;;5068048;28;20056;-78
2023/05/17 01:06:42;;;;;;;3.63;0.90;;;8.50;74.60;;;;;;5041787;28;20045;-61
2023/05/17 01:09:09;;;;;;;2.63;0.88;;;8.50;74.80;;;;;;5058206;28;20384;-61
2023/05/17 01:11:53;;;;;;;5.15;0.90;;;8.40;75.10;;;;;;5069182;28;20055;-61
2023/05/17 01:14:33;;;;;;;5.13;1.20;;;8.40;75.40;;;;;;5064230;28;20048;-62
2023/05/17 01:17:05;;;;;;;3.55;0.82;;;8.30;75.40;;;;;;5064804;28;20048;-77
2023/05/17 01:19:50;;;;;;;6.60;1.10;;;8.40;75.30;;;;;;5064984;28;20052;-79
2023/05/17 01:22:31;;;;;;;4.57;0.90;;;8.40;75.00;;;;;;5046506;28;20048;-66
2023/05/17 01:25:15;;;;;;;3.15;0.90;;;8.40;74.80;;;;;;5065677;28;20041;-68
2023/05/17 01:27:57;;;;;;;3.20;1.02;;;8.50;74.70;;;;;;5067248;28;20052;-67
2023/05/17 01:30:29;;;;;;;1.95;0.60;;;8.40;74.80;;;;;;5066888;28;20106;-77
2023/05/17 01:32:58;;;;;;;2.03;0.60;;;8.30;75.10;;;;;;5063691;28;20434;-77
2023/05/17 01:35:25;;;;;;;2.40;0.63;;;8.40;75.20;;;;;;5040635;28;20048;-62
2023/05/17 01:37:53;;;;;;;6.60;1.17;;;8.30;75.60;;;;;;5047270;28;20055;-63
2023/05/17 01:40:21;;;;;;;4.97;1.02;;;8.20;75.60;;;;;;5048511;28;20048;-69
2023/05/17 01:42:54;;;;;;;3.33;0.80;;;8.30;75.50;;;;;;5062098;28;20052;-69
2023/05/17 01:45:27;;;;;;;4.07;1.08;;;8.30;75.40;;;;;;5064664;28;20519;-61
2023/05/17 01:48:04;;;;;;;2.97;1.10;;;8.20;75.70;;;;;;5063009;28;20545;-60
2023/05/17 01:50:35;;;;;;;4.03;1.00;;;8.10;75.90;;;;;;5041337;28;20049;-67
2023/05/17 01:53:07;;;;;;;3.00;0.98;;;8.10;76.10;;;;;;5064278;28;20480;-66
2023/05/17 01:55:41;;;;;;;2.45;0.98;;;8.10;76.00;;;;;;5063586;28;20040;-72
2023/05/17 01:58:12;;;;;;;2.65;0.90;;;8.20;75.80;;;;;;5064938;28;20048;-70
2023/05/17 02:00:41;;;;;;;4.80;1.15;;;8.10;75.70;;;;;;5045662;28;20056;-67
2023/05/17 02:03:12;;;;;;;4.22;1.10;;;8.10;75.80;;;;;;5066964;28;20049;-67
2023/05/17 02:05:38;;;;;;;3.60;0.90;;;8.00;76.00;;;;;;5064980;28;20048;-70
2023/05/17 02:08:06;;;;;;;4.72;1.30;;;8.10;76.10;;;;;;5048251;28;20079;-71
2023/05/17 02:10:34;;;;;;;2.58;1.10;;;8.10;76.10;;;;;;5062711;28;20048;-67
2023/05/17 02:13:03;;;;;;;3.80;1.05;;;8.00;76.40;;;;;;5063003;28;20044;-68
2023/05/17 02:15:32;;;;;;;4.35;1.02;;;8.00;76.50;;;;;;5050477;28;20045;-61
2023/05/17 02:18:00;;;;;;;3.13;1.40;;;8.00;76.40;;;;;;5061008;28;20036;-60
2023/05/17 02:20:27;;;;;;;3.22;1.30;;;8.00;76.60;;;;;;5065713;28;20097;-67
2023/05/17 02:22:54;;;;;;;4.50;0.90;;;8.00;76.50;;;;;;5043144;28;20395;-67
2023/05/17 02:25:21;;;;;;;4.72;1.30;;;8.00;76.60;;;;;;5063942;28;20041;-66
2023/05/17 02:27:48;;;;;;;5.18;1.40;;;7.90;76.70;;;;;;5062761;28;20049;-66
2023/05/17 02:30:16;;;;;;;2.88;1.10;;;7.90;76.90;;;;;;5040826;28;20074;-68
2023/05/17 02:32:44;;;;;;;3.58;1.30;;;7.90;76.90;;;;;;5064007;28;20049;-67
2023/05/17 02:35:13;;;;;;;3.05;1.30;;;7.90;76.90;;;;;;5065485;28;20045;-67
2023/05/17 02:37:40;;;;;;;5.00;0.98;;;7.90;76.90;;;;;;5047867;28;20131;-67
2023/05/17 02:40:09;;;;;;;3.05;1.13;;;7.80;76.80;;;;;;5065601;28;20423;-68
2023/05/17 02:42:36;;;;;;;3.38;1.00;;;7.90;76.90;;;;;;5065871;28;20051;-63
2023/05/17 02:45:04;;;;;;;3.08;1.10;;;7.90;76.70;;;;;;5065219;28;20068;-61
2023/05/17 02:47:31;;;;;;;4.43;1.13;;;7.90;76.60;;;;;;5065343;28;20048;-67
2023/05/17 02:50:00;;;;;;;3.92;1.13;;;7.90;76.50;;;;;;5065506;28;20127;-68
2023/05/17 02:52:27;;;;;;;4.50;1.33;;;7.80;76.70;;;;;;5046766;28;20125;-68
2023/05/17 02:54:54;;;;;;;3.97;1.40;;;7.80;76.70;;;;;;5064973;28;20052;-67
2023/05/17 02:57:21;;;;;;;6.13;1.23;;;7.80;76.80;;;;;;5038366;28;20416;-67
2023/05/17 02:59:48;;;;;;;2.50;1.02;;;7.80;76.70;;;;;;5065610;28;20135;-68
2023/05/17 03:02:15;;;;;;;4.10;1.30;;;7.70;76.90;;;;;;5041158;28;20049;-66
2023/05/17 03:04:42;;;;;;;6.10;1.70;;;7.70;77.10;;;;;;5065781;28;20074;-66
2023/05/17 03:07:11;;;;;;;2.50;1.08;;;7.70;77.10;;;;;;5045282;28;20471;-60
2023/05/17 03:09:40;;;;;;;3.60;1.60;;;7.70;77.10;;;;;;5043564;28;20048;-60
2023/05/17 03:12:09;;;;;;;4.20;1.35;;;7.70;77.30;;;;;;5062156;28;20541;-61
2023/05/17 03:14:35;;;;;;;4.50;1.80;;;7.60;77.50;;;;;;5036828;28;20060;-62
2023/05/17 03:17:03;;;;;;;4.80;1.20;;;7.60;77.40;;;;;;5056177;28;20045;-61
2023/05/17 03:19:31;;;;;;;5.70;1.40;;;7.50;77.40;;;;;;5055366;28;20048;-61
2023/05/17 03:21:57;;;;;;;5.50;1.40;;;7.60;77.50;;;;;;5042755;28;20044;-66
2023/05/17 03:24:27;;;;;;;5.32;1.50;;;7.50;77.60;;;;;;5063690;28;20526;-67
2023/05/17 03:26:53;;;;;;;3.75;1.40;;;7.60;77.60;;;;;;5045576;28;20044;-69
2023/05/17 03:29:20;;;;;;;3.60;1.50;;;7.60;77.50;;;;;;5045631;28;20376;-69
2023/05/17 03:31:47;;;;;;;4.60;1.70;;;7.60;77.50;;;;;;5047752;28;20090;-60
2023/05/17 03:34:15;;;;;;;4.10;1.33;;;7.50;77.60;;;;;;5047779;28;20140;-62
2023/05/17 03:36:42;;;;;;;4.63;1.70;;;7.50;77.70;;;;;;5067626;28;20041;-68
2023/05/17 03:39:09;;;;;;;4.30;1.50;;;7.50;77.80;;;;;;5046955;28;20442;-67
2023/05/17 03:41:41;;;;;;;7.43;1.85;;;7.50;77.80;;;;;;5053014;28;20446;-79
2023/05/17 03:44:08;;;;;;;4.53;1.38;;;7.50;77.80;;;;;;5042185;28;20041;-79
2023/05/17 03:46:36;;;;;;;6.28;1.55;;;7.50;77.80;;;;;;5050508;28;20143;-66
2023/05/17 03:49:04;;;;;;;6.38;1.52;;;7.50;77.70;;;;;;5049251;28;20136;-68
2023/05/17 03:51:32;;;;;;;4.57;1.30;;;7.50;77.60;;;;;;5051953;28;20423;-70
2023/05/17 03:54:01;;;;;;;3.28;1.48;;;7.40;78.00;;;;;;5046071;28;20470;-70
2023/05/17 03:56:30;;;;;;;5.22;1.63;;;7.40;77.90;;;;;;5050628;28;20044;-69
2023/05/17 03:58:58;;;;;;;3.10;1.25;;;7.40;78.10;;;;;;5048003;28;20099;-69
2023/05/17 04:01:25;;;;;;;3.42;1.20;;;7.40;78.10;;;;;;5052667;28;20060;-65
2023/05/17 04:03:52;;;;;;;6.45;1.55;;;7.50;77.90;;;;;;5045820;28;20052;-65
2023/05/17 04:06:20;;;;;;;5.70;2.00;;;7.50;77.80;;;;;;5068750;28;20044;-67
2023/05/17 04:08:47;;;;;;;3.33;1.50;;;7.40;78.10;;;;;;5049914;28;20048;-67
2023/05/17 04:11:14;;;;;;;3.50;1.40;;;7.40;78.40;;;;;;5052139;28;20055;-70
2023/05/17 04:13:42;;;;;;;4.57;1.38;;;7.40;78.60;;;;;;5048271;28;20041;-69
2023/05/17 04:16:10;;;;;;;5.60;1.65;;;7.40;79.00;;;;;;5045969;28;20128;-66
2023/05/17 04:18:40;;;;;;;3.72;1.38;;;7.40;79.10;;;;;;5067122;28;20063;-66
2023/05/17 04:21:07;;;;;;;4.47;1.48;;;7.40;79.40;;;;;;5042382;28;20411;-67
2023/05/17 04:23:35;;;;;;;5.00;1.27;;;7.50;79.40;;;;;;5062766;28;20060;-68
2023/05/17 04:26:03;;;;;;;5.82;2.00;;;7.50;79.60;;;;;;5064062;28;20043;-78
2023/05/17 04:28:33;;;;;;;6.18;1.98;;;7.50;79.70;;;;;;5048429;28;20060;-79
2023/05/17 04:31:00;;;;;;;5.57;2.05;;;7.50;79.80;;;;;;5041415;28;20047;-79
2023/05/17 04:33:29;;;;;;;3.92;1.73;;;7.60;79.80;;;;;;5051847;28;20076;-79
2023/05/17 04:35:57;;;;;;;4.88;1.85;;;7.70;79.70;;;;;;5047344;28;20050;-61
2023/05/17 04:38:26;;;;;;;5.55;1.90;;;7.70;79.40;;;;;;5042584;28;20056;-60
2023/05/17 04:40:54;;;;;;;6.72;2.03;;;7.70;79.30;;;;;;5039301;28;20065;-67
2023/05/17 04:43:21;;;;;;;4.22;1.60;;;7.70;79.30;;;;;;5041083;28;20045;-66
2023/05/17 04:45:49;;;;;;;4.93;1.65;;;7.70;79.40;;;;;;5045512;28;20052;-68
2023/05/17 04:48:18;;;;;;;4.47;1.88;;;7.70;79.30;;;;;;5051149;28;20055;-71
2023/05/17 04:50:46;;;;;;;4.57;1.63;;;7.70;79.30;;;;;;5065544;28;20098;-67
2023/05/17 04:53:14;;;;;;;5.88;1.83;;;7.70;79.40;;;;;;5048793;28;20048;-67
2023/05/17 04:55:41;;;;;;;4.15;1.40;;;7.70;79.40;;;;;;5047540;28;20506;-66
2023/05/17 04:58:11;;;;;;;3.90;1.70;;;7.70;79.40;;;;;;5049112;28;20091;-66
2023/05/17 05:00:39;;;;;;;4.05;1.52;;;7.80;79.30;;;;;;5048232;28;20407;-66
2023/05/17 05:03:07;;;;;;;5.28;1.92;;;7.90;79.20;;;;;;5045998;28;20044;-65
2023/05/17 05:05:35;;;;;;;4.75;1.90;;;7.90;79.50;;;;;;5048967;28;20055;-64
2023/05/17 05:08:04;;;;;;;6.78;2.75;;;7.90;79.40;;;;;;5050723;28;20159;-66
2023/05/17 05:10:31;;;;;;;6.00;2.28;;;7.90;79.30;;;;;;5045137;28;20549;-62
2023/05/17 05:12:58;;;;;;;4.03;1.63;;;7.90;79.20;;;;;;5044894;28;20492;-62
2023/05/17 05:15:25;;;;;;;4.53;1.63;;;7.80;79.20;;;;;;5045216;28;20052;-68
2023/05/17 05:17:56;;;;;;;3.90;1.40;;;7.80;79.20;;;;;;5062302;28;20044;-69
2023/05/17 05:20:23;;;;;;;4.80;1.85;;;7.80;79.30;;;;;;5045767;28;20861;-80
2023/05/17 05:22:51;;;;;;;5.35;1.90;;;7.80;79.30;;;;;;5044185;28;20151;-80
2023/05/17 05:25:20;;;;;;;4.93;2.05;;;7.80;79.30;;;;;;5040665;28;20132;-70
2023/05/17 05:27:47;;;;;;;5.72;2.10;;;7.80;79.30;;;;;;5043611;28;20436;-67
2023/05/17 05:30:20;;;;;;;6.93;2.60;;;7.90;79.30;;;;;;5051241;28;20384;-67
2023/05/17 05:32:49;;;;;;;4.47;1.92;;;8.00;79.50;;;;;;5046171;28;20041;-67
2023/05/17 05:35:16;;;;;;;8.18;2.50;;;8.00;79.50;;;;;;5046327;28;20051;-67
2023/05/17 05:37:44;;;;;;;5.32;2.15;;;8.10;79.60;;;;;;5038613;28;20049;-67
2023/05/17 05:40:12;;;;;;;7.05;2.22;;;8.20;79.60;;;;;;5059682;28;20099;-66
2023/05/17 05:42:42;;;;;;;3.55;1.70;;;8.30;79.50;;;;;;5042394;28;20054;-66
2023/05/17 05:45:11;;;;;;;6.05;2.25;;;8.40;79.20;;;;;;5046351;28;20407;-66
2023/05/17 05:47:38;;;;;;;7.63;1.95;;;8.50;79.30;;;;;;5047877;28;20049;-68
2023/05/17 05:50:08;;;;;;;4.70;1.88;;;8.40;79.00;;;;;;5065596;28;20076;-67
2023/05/17 05:52:35;;;;;;;4.45;1.85;;;8.40;79.00;;;;;;5047120;28;20060;-67
2023/05/17 05:55:02;;;;;;;5.40;1.80;;;8.50;78.90;;;;;;5046687;28;21293;-67
2023/05/17 05:57:29;;;;;;;3.60;1.48;;;8.60;78.70;;;;;;5048381;28;20045;-71
2023/05/17 05:59:57;;;;;;;5.70;2.10;;;8.60;78.80;;;;;;5064591;28;20052;-69
2023/05/17 06:02:25;;;;;;;5.68;2.22;;;8.60;78.80;;;;;;5041496;28;20108;-67
2023/05/17 06:04:52;;;;;;;7.65;2.30;;;8.60;78.70;;;;;;5062745;28;20076;-67
2023/05/17 06:07:19;;;;;;;5.88;2.00;;;8.60;78.70;;;;;;5066739;28;20492;-68
2023/05/17 06:09:46;;;;;;;7.53;1.90;;;8.60;78.50;;;;;;5062856;28;20084;-69
2023/05/17 06:12:13;;;;;;;4.90;2.05;;;8.70;78.60;;;;;;5066667;28;20123;-82
2023/05/17 06:14:39;;;;;;;6.60;2.70;;;8.70;78.50;;;;;;5067104;28;20052;-79
2023/05/17 06:17:08;;;;;;;7.68;2.60;;;8.80;78.50;;;;;;5066727;28;20057;-68
2023/05/17 06:19:34;;;;;;;5.95;2.45;;;8.90;78.50;;;;;;5067083;28;20032;-70
2023/05/17 06:22:01;;;;;;;6.60;2.20;;;9.00;78.30;;;;;;5064744;28;20110;-71
2023/05/17 06:24:28;;;;;;;5.78;2.38;;;9.00;78.70;;;;;;5062414;28;20503;-70
2023/05/17 06:26:55;;;;;;;5.00;2.00;;;9.10;78.70;;;;;;5063009;28;20044;-66
2023/05/17 06:29:22;;;;;;;5.07;2.08;;;9.10;78.50;;;;;;5066384;28;20458;-67
2023/05/17 06:31:49;;;;;;;5.35;2.13;;;9.20;78.60;;;;;;5064123;28;20040;-69
2023/05/17 06:34:18;;;;;;;4.95;1.75;;;9.20;78.60;;;;;;5065870;28;20041;-69
2023/05/17 06:36:45;;;;;;;5.28;1.90;;;9.30;78.60;;;;;;5062685;28;20063;-61
2023/05/17 06:39:12;;;;;;;4.57;1.73;;;9.30;78.50;;;;;;5063854;28;20041;-61
2023/05/17 06:41:39;;;;;;;6.50;2.42;;;9.20;78.30;;;;;;5063459;28;20055;-61
2023/05/17 06:44:06;;;;;;;5.85;2.50;;;9.30;78.00;;;;;;5065809;28;20055;-61
2023/05/17 06:46:33;;;;;;;5.43;2.00;;;9.30;78.00;;;;;;5062165;28;20136;-78
2023/05/17 06:49:01;;;;;;;6.72;2.42;;;9.40;78.20;;;;;;5065689;28;20048;-78
2023/05/17 06:51:29;;;;;;;6.00;2.08;;;9.50;77.60;;;;;;5043802;28;20148;-81
2023/05/17 06:53:56;;;;;;;6.07;2.15;;;9.40;77.30;;;;;;5067565;28;20041;-81
2023/05/17 06:56:23;;;;;;;7.72;2.42;;;9.50;78.10;;;;;;5065126;28;20048;-68
2023/05/17 06:58:50;;;;;;;5.80;2.20;;;9.60;77.60;;;;;;5064722;28;20130;-69
2023/05/17 07:01:19;;;;;;;5.75;2.13;;;9.70;77.80;;;;;;5063273;28;20143;-80
2023/05/17 07:03:46;;;;;;;5.53;2.13;;;9.80;77.30;;;;;;5065633;28;20049;-81
2023/05/17 07:06:13;;;;;;;6.50;2.40;;;9.90;77.00;;;;;;5066667;28;20149;-69
2023/05/17 07:08:41;;;;;;;7.38;2.20;;;10.00;76.80;;;;;;5069320;28;20051;-70
2023/05/17 07:11:08;;;;;;;7.57;2.50;;;10.20;76.70;;;;;;5068310;28;20503;-60
2023/05/17 07:13:35;;;;;;;8.52;2.60;;;10.20;76.70;;;;;;5064202;28;20704;-60
2023/05/17 07:16:02;;;;;;;5.65;2.05;;;10.30;76.90;;;;;;5066390;28;20049;-67
2023/05/17 07:18:29;;;;;;;6.68;2.42;;;10.40;76.80;;;;;;5068878;28;20080;-68
2023/05/17 07:20:56;;;;;;;6.60;2.40;;;10.40;76.90;;;;;;5068205;28;20064;-70
2023/05/17 07:23:22;;;;;;;4.95;2.08;;;10.50;76.70;;;;;;5068896;28;20056;-71
2023/05/17 07:25:51;;;;;;;5.38;2.40;;;10.50;76.50;;;;;;5069854;28;20036;-66
2023/05/17 07:28:18;;;;;;;7.45;2.17;;;10.50;76.50;;;;;;5066849;28;20060;-67
2023/05/17 07:30:44;;;;;;;7.40;2.40;;;10.50;76.50;;;;;;5069466;28;20048;-79
2023/05/17 07:33:11;;;;;;;5.43;2.45;;;10.50;76.20;;;;;;5068887;28;20407;-79
2023/05/17 07:35:38;;;;;;;7.45;2.42;;;10.50;76.30;;;;;;5069411;28;20049;-65
2023/05/17 07:38:05;;;;;;;6.63;2.53;;;10.50;76.30;;;;;;5065452;28;20562;-65
2023/05/17 07:40:32;;;;;;;8.10;2.35;;;10.50;76.60;;;;;;5068265;28;20053;-65
2023/05/17 07:43:00;;;;;;;7.50;2.67;;;10.60;76.70;;;;;;5066765;28;20411;-65
2023/05/17 07:45:27;;;;;;;6.18;2.45;;;10.60;76.50;;;;;;5063266;28;20415;-66
2023/05/17 07:47:54;;;;;;;7.95;2.28;;;10.70;76.30;;;;;;5068632;28;20054;-66
2023/05/17 07:50:21;;;;;;;7.55;2.20;;;10.70;76.20;;;;;;5064293;28;20135;-63
2023/05/17 07:52:48;;;;;;;8.88;2.78;;;10.80;76.10;;;;;;5063769;28;20178;-61
2023/05/17 07:55:15;;;;;;;4.63;2.15;;;11.00;75.70;;;;;;5065637;28;20472;-60
2023/05/17 07:57:42;;;;;;;7.25;2.97;;;11.10;75.30;;;;;;5067292;28;20052;-61
2023/05/17 08:00:12;;;;;;;6.20;2.17;;;11.10;75.00;;;;;;5064732;28;20105;-61
2023/05/17 08:02:39;;;;;;;6.68;2.42;;;11.20;75.20;;;;;;5045302;28;20146;-61
2023/05/17 08:05:07;;;;;;;5.47;2.30;;;11.20;75.40;;;;;;5065038;28;20054;-61
2023/05/17 08:07:34;;;;;;;7.10;2.28;;;11.30;75.20;;;;;;5068145;28;20508;-61
2023/05/17 08:10:01;;;;;;;9.57;2.47;;;11.30;75.20;;;;;;5066734;28;20140;-62
2023/05/17 08:12:28;;;;;;;7.53;2.60;;;11.30;75.50;;;;;;5066744;28;20049;-79
2023/05/17 08:14:55;;;;;;;7.75;2.83;;;11.30;75.60;;;;;;5049432;28;20102;-79
2023/05/17 08:17:23;;;;;;;7.32;2.80;;;11.30;75.70;;;;;;5068894;28;20051;-70
2023/05/17 08:19:50;;;;;;;6.55;2.67;;;11.40;75.50;;;;;;5068384;28;20053;-70
2023/05/17 08:22:17;;;;;;;7.45;2.50;;;11.50;74.60;;;;;;5065457;28;20506;-70
2023/05/17 08:24:44;;;;;;;8.30;2.72;;;11.60;72.10;;;;;;5068922;28;20602;-70
2023/05/17 08:27:11;;;;;;;7.95;2.47;;;11.70;71.30;;;;;;5064883;28;20054;-69
2023/05/17 08:29:38;;;;;;;7.47;2.20;;;11.80;67.70;;;;;;5068035;28;20052;-70
2023/05/17 08:32:06;;;;;;;8.52;3.13;;;11.90;66.40;;;;;;5067151;28;20044;-62
2023/05/17 08:34:35;;;;;;;5.82;2.10;;;12.00;65.60;;;;;;5068646;28;20187;-61
2023/05/17 08:37:02;;;;;;;6.75;2.22;;;12.00;65.80;;;;;;5067882;28;20052;-62
2023/05/17 08:39:29;;;;;;;6.50;2.17;;;12.10;65.40;;;;;;5064588;28;20053;-61
2023/05/17 08:41:58;;;;;;;6.97;2.22;;;12.10;64.90;;;;;;5068898;28;20127;-61
2023/05/17 08:44:27;;;;;;;6.53;2.00;;;12.20;63.60;;;;;;5065631;28;20504;-62
2023/05/17 08:46:57;;;;;;;6.93;2.07;;;12.30;63.60;;;;;;5066460;28;20831;-66
2023/05/17 08:49:27;;;;;;;5.43;2.03;;;12.30;64.00;;;;;;5066957;28;20049;-67
2023/05/17 08:51:59;;;;;;;5.78;1.88;;;12.50;63.60;;;;;;5048311;28;20121;-67
2023/05/17 08:54:26;;;;;;;5.22;1.70;;;12.70;63.80;;;;;;5046618;28;20053;-68
2023/05/17 08:56:56;;;;;;;5.72;1.83;;;12.90;63.80;;;;;;5065133;28;20048;-70
2023/05/17 08:59:23;;;;;;;6.38;1.70;;;13.00;62.70;;;;;;5058867;28;20052;-70
2023/05/17 09:01:53;;;;;;;7.15;1.90;;;13.10;62.40;;;;;;5067749;28;20072;-68
2023/05/17 09:04:21;;;;;;;5.47;2.30;;;13.10;61.60;;;;;;5064184;28;20419;-70
2023/05/17 09:06:49;;;;;;;6.65;2.00;;;13.00;61.10;;;;;;5063877;28;20492;-71
2023/05/17 09:09:18;;;;;;;6.25;1.95;;;13.10;60.40;;;;;;5066257;28;20036;-70
2023/05/17 09:11:45;;;;;;;7.75;2.10;;;13.10;61.00;;;;;;5057766;28;20063;-67
2023/05/17 09:14:14;;;;;;;5.20;1.70;;;13.10;60.70;;;;;;5062839;28;20048;-66
2023/05/17 09:16:42;;;;;;;7.05;1.90;;;13.10;60.30;;;;;;5063775;28;20060;-67
2023/05/17 09:19:14;;;;;;;5.07;1.92;;;13.10;60.00;;;;;;5066567;28;20056;-67
2023/05/17 09:21:46;;;;;;;7.30;2.20;;;13.10;58.70;;;;;;5063503;28;20045;-67
2023/05/17 09:24:13;;;;;;;6.95;2.50;;;13.20;58.60;;;;;;5067414;28;20079;-66
2023/05/17 09:26:43;;;;;;;5.25;2.10;;;13.10;59.00;;;;;;5065046;28;20075;-71
2023/05/17 09:29:10;;;;;;;6.00;2.40;;;13.20;58.70;;;;;;5046882;28;20064;-69
2023/05/17 09:31:37;;;;;;;7.22;2.25;;;13.20;58.60;;;;;;5059629;28;20049;-66
2023/05/17 09:34:05;;;;;;;6.85;2.25;;;13.20;58.80;;;;;;5064228;28;20404;-66
2023/05/17 09:36:33;;;;;;;6.82;2.50;;;13.30;59.10;;;;;;5063708;28;20056;-77
2023/05/17 09:39:03;;;;;;;4.85;2.15;;;13.40;58.70;;;;;;5046397;28;20052;-77
2023/05/17 09:41:31;;;;;;;7.38;2.20;;;13.50;57.80;;;;;;5063280;28;20121;-78
2023/05/17 09:44:00;;;;;;;4.60;2.45;;;13.80;57.60;;;;;;5065019;28;20052;-76
2023/05/17 09:46:27;;;;;;;6.03;1.98;;;13.90;56.70;;;;;;5064945;28;20068;-76
2023/05/17 09:48:55;;;;;;;7.20;1.95;;;13.90;57.90;;;;;;5064398;28;20059;-77
2023/05/17 09:51:32;;;;;;;5.70;2.03;;;13.90;58.30;;;;;;5063573;28;20561;-67
2023/05/17 09:53:59;;;;;;;6.53;1.90;;;14.10;58.30;;;;;;5064693;28;20048;-67
2023/05/17 09:56:28;;;;;;;7.30;1.90;;;14.30;58.20;;;;;;5064580;28;20048;-71
2023/05/17 09:58:55;;;;;;;6.28;2.08;;;14.60;58.10;;;;;;5065998;28;20051;-71
2023/05/17 10:01:26;;;;;;;5.40;1.85;;;14.80;58.20;;;;;;5067128;28;20125;-71
2023/05/17 10:03:54;;;;;;;6.78;2.05;;;14.80;57.10;;;;;;5061072;28;20102;-72
2023/05/17 10:06:22;;;;;;;9.65;2.20;;;14.80;56.00;;;;;;5066721;28;20041;-76
2023/05/17 10:08:53;;;;;;;3.85;1.88;;;14.80;55.00;;;;;;5062782;28;20045;-78
2023/05/17 10:11:26;;;;;;;7.53;1.98;;;14.70;54.50;;;;;;5066098;28;20091;-60
2023/05/17 10:14:03;;;;;;;5.45;1.75;;;14.70;53.60;;;;;;5064708;28;20080;-61
2023/05/17 10:16:33;;;;;;;6.18;1.90;;;14.60;53.50;;;;;;5064211;28;20048;-61
2023/05/17 10:19:01;;;;;;;7.10;1.98;;;14.60;52.80;;;;;;5062645;28;20083;-62
2023/05/17 10:21:29;;;;;;;6.00;1.73;;;14.50;53.10;;;;;;5062044;28;20053;-61
2023/05/17 10:23:56;;;;;;;6.68;2.20;;;14.50;52.60;;;;;;5063315;28;20045;-63
2023/05/17 10:26:23;;;;;;;5.38;1.63;;;14.40;53.50;;;;;;5063015;28;20056;-61
2023/05/17 10:28:55;;;;;;;6.55;1.88;;;14.30;53.80;;;;;;5062911;28;20324;-61
2023/05/17 10:31:23;;;;;;;5.57;2.15;;;14.30;54.60;;;;;;5065157;28;20495;-69
2023/05/17 10:33:52;;;;;;;5.50;1.80;;;14.30;54.60;;;;;;5063422;28;20045;-70
2023/05/17 10:36:19;;;;;;;8.85;2.08;;;14.30;53.90;;;;;;5068005;28;20080;-66
2023/05/17 10:38:47;;;;;;;5.30;1.95;;;14.40;54.40;;;;;;5065533;28;20039;-66
2023/05/17 10:41:16;;;;;;;6.18;2.05;;;14.40;54.80;;;;;;5072241;28;20130;-67
2023/05/17 10:43:45;;;;;;;5.87;1.80;;;14.40;54.00;;;;;;5069323;28;20064;-67
2023/05/17 10:46:15;;;;;;;7.43;2.20;;;14.40;54.60;;;;;;5068153;28;20072;-68
2023/05/17 10:48:42;;;;;;;5.95;2.05;;;14.50;53.40;;;;;;5070988;28;20486;-67
2023/05/17 10:51:11;;;;;;;6.20;2.35;;;14.60;53.90;;;;;;5070520;28;20052;-77
2023/05/17 10:54:09;;;;;;;6.63;2.10;;;14.70;54.50;;;;;;5071764;28;20090;-77
2023/05/17 10:56:40;;;;;;;6.28;1.88;;;14.70;54.70;;;;;;5070051;28;20037;-67
2023/05/17 10:59:20;;;;;;;5.65;1.73;;;14.90;54.10;;;;;;5067495;28;20072;-63
2023/05/17 11:01:57;;;;;;;5.90;2.00;;;15.10;53.30;;;;;;5070080;28;20045;-65
2023/05/17 11:04:25;;;;;;;6.80;2.42;;;15.40;53.20;;;;;;5067916;28;20048;-65
2023/05/17 11:07:15;;;;;;;4.88;1.70;;;15.50;54.00;;;;;;5070552;28;20033;-70
2023/05/17 11:09:42;;;;;;;8.07;1.92;;;15.60;53.90;;;;;;5068435;28;20476;-70
2023/05/17 11:12:11;;;;;;;6.28;1.90;;;15.90;53.80;;;;;;5066116;28;20052;-67
2023/05/17 11:14:48;;;;;;;6.82;2.30;;;16.00;53.30;;;;;;5059612;28;20048;-67
2023/05/17 11:17:16;;;;;;;4.55;1.67;;;16.20;52.70;;;;;;5050262;28;20067;-60
2023/05/17 11:19:56;;;;;;;6.70;2.15;;;16.40;53.10;;;;;;5069675;28;20044;-61
2023/05/17 11:22:25;;;;;;;;;;;16.60;53.00;;;;;;5070474;28;20095;-72
2023/05/17 11:24:53;;;;;;;6.00;2.95;;;16.80;52.90;;;;;;5062941;28;19920;-72
2023/05/17 11:27:26;;;;;;;9.02;3.50;;;16.80;52.30;;;;;;5067258;28;20120;-71
2023/05/17 11:29:53;;;;;;;7.60;3.40;;;16.60;51.60;;;;;;5067390;28;20048;-72
2023/05/17 11:32:27;;;;;;;6.65;2.58;;;16.60;50.50;;;;;;5061575;28;20894;-78
2023/05/17 11:34:55;;;;;;;6.10;2.88;;;16.50;51.20;;;;;;5069853;28;20045;-79
2023/05/17 11:37:27;;;;;;;5.63;1.88;;;16.50;49.10;;;;;;5070491;28;20060;-61
2023/05/17 11:40:05;;;;;;;6.30;2.28;;;16.40;47.30;;;;;;5065786;28;20053;-62
2023/05/17 11:42:32;;;;;;;6.20;2.20;;;16.60;48.20;;;;;;5067486;28;20515;-71
2023/05/17 11:45:01;;;;;;;4.78;1.70;;;16.60;48.80;;;;;;5055678;28;20044;-71
2023/05/17 11:47:30;;;;;;;5.68;1.83;;;16.60;48.60;;;;;;5059239;28;20053;-75
2023/05/17 11:50:01;;;;;;;5.97;2.40;;;16.70;48.10;;;;;;5056843;28;20496;-77
2023/05/17 11:52:29;;;;;;;6.22;2.05;;;16.80;47.00;;;;;;5065369;28;20045;-67
2023/05/17 11:54:58;;;;;;;3.60;1.50;;;17.00;47.60;;;;;;5057894;28;20051;-66
2023/05/17 11:57:30;;;;;;;4.97;1.88;;;17.10;47.70;;;;;;5051145;28;20075;-62
2023/05/17 12:00:01;;;;;;;6.05;1.83;;;17.30;47.70;;;;;;5059175;28;20524;-62
2023/05/17 12:02:29;;;;;;;5.72;1.77;;;17.10;47.90;;;;;;5061540;28;20056;-67
2023/05/17 12:04:56;;;;;;;4.95;1.67;;;16.80;46.80;;;;;;5060888;28;20044;-66
2023/05/17 12:07:24;;;;;;;3.95;1.42;;;16.60;46.10;;;;;;5054721;28;20044;-68
2023/05/17 12:09:52;;;;;;;5.60;1.75;;;16.70;46.40;;;;;;5051327;28;20055;-68
2023/05/17 12:12:21;;;;;;;5.70;1.73;;;16.70;47.10;;;;;;5056482;28;20049;-68
2023/05/17 12:14:49;;;;;;;6.90;2.00;;;16.60;46.90;;;;;;5058596;28;20052;-67
2023/05/17 12:17:28;;;;;;;7.50;2.25;;;16.50;47.00;;;;;;5057188;28;20143;-68
2023/05/17 12:19:55;;;;;;;7.10;2.25;;;16.60;46.90;;;;;;5057374;28;20048;-68
2023/05/17 12:22:22;;;;;;;6.13;2.13;;;16.70;46.10;;;;;;5064126;28;20051;-68
2023/05/17 12:24:49;;;;;;;7.13;2.25;;;16.80;46.50;;;;;;5059551;28;20049;-67
2023/05/17 12:27:39;;;;;;;5.18;2.05;;;16.90;46.70;;;;;;5058099;28;20053;-60
2023/05/17 12:30:15;;;;;;;7.85;2.00;;;17.10;47.00;;;;;;5058523;28;20050;-62
2023/05/17 12:32:42;;;;;;;8.00;1.80;;;17.20;47.30;;;;;;5061749;28;20491;-62
2023/05/17 12:35:10;;;;;;;5.07;1.92;;;17.20;46.00;;;;;;5062546;28;20090;-61
2023/05/17 12:37:38;;;;;;;5.25;1.77;;;17.30;45.00;;;;;;5062243;28;20056;-62
2023/05/17 12:40:06;;;;;;;6.55;2.58;;;17.30;45.50;;;;;;5059543;28;20040;-63
2023/05/17 12:42:34;;;;;;;6.07;2.30;;;17.40;45.40;;;;;;5047310;28;20063;-62
2023/05/17 12:45:02;;;;;;;4.45;2.03;;;17.40;45.00;;;;;;5060948;28;20045;-62
2023/05/17 12:47:33;;;;;;;5.97;1.60;;;17.50;44.80;;;;;;5060164;28;20044;-62
2023/05/17 12:50:09;;;;;;;5.00;1.77;;;17.60;44.70;;;;;;5039458;28;20051;-62
2023/05/17 12:52:36;;;;;;;6.05;2.10;;;17.60;45.50;;;;;;5061018;28;20522;-70
2023/05/17 12:55:04;;;;;;;6.28;1.55;;;17.50;43.30;;;;;;5041626;28;20037;-70
2023/05/17 12:57:31;;;;;;;5.00;1.50;;;18.10;41.70;;;;;;5060360;28;20084;-76
2023/05/17 13:00:06;;;;;;;4.22;1.50;;;17.50;43.60;;;;;;5061134;28;20073;-76
2023/05/17 13:02:33;;;;;;;6.85;1.65;;;17.20;44.40;;;;;;5063332;28;20051;-61
2023/05/17 13:05:16;;;;;;;6.20;1.52;;;17.20;45.40;;;;;;5060692;28;20041;-62